createdAt,value
2022-10-05T07:05:46.670Z,7.38
2022-10-05T07:08:21.830Z,5.70
2022-10-05T07:15:11.587Z,6.82
2022-10-05T07:22:47.691Z,5.60
2022-10-05T07:25:21.545Z,5.55
2022-10-05T07:33:30.387Z,6.20
2022-10-05T07:36:25.442Z,5.13
2022-10-05T07:39:00.918Z,5.80
2022-10-05T07:44:14.312Z,5.43
2022-10-05T07:46:55.874Z,5.32
2022-10-05T07:49:39.001Z,5.03
2022-10-05T07:52:14.193Z,5.05
2022-10-05T07:54:51.834Z,5.37
2022-10-05T07:57:29.753Z,4.38
2022-10-05T08:00:04.873Z,4.90
2022-10-05T08:02:46.399Z,6.28
2022-10-05T08:05:23.433Z,6.97
2022-10-05T08:07:56.874Z,7.38
2022-10-05T08:10:31.972Z,6.70
2022-10-05T08:13:09.154Z,7.45
2022-10-05T08:15:43.210Z,7.95
2022-10-05T08:18:18.594Z,8.77
2022-10-05T08:20:51.276Z,6.82
2022-10-05T08:23:25.356Z,7.60
2022-10-05T08:26:03.990Z,6.85
2022-10-05T08:28:35.704Z,6.55
2022-10-05T08:31:15.051Z,6.43
2022-10-05T08:33:53.874Z,5.88
2022-10-05T08:36:33.110Z,5.80
2022-10-05T08:39:06.189Z,6.57
2022-10-05T08:42:13.203Z,5.78
2022-10-05T08:45:22.235Z,5.68
2022-10-05T08:48:29.073Z,6.50
2022-10-05T08:51:37.840Z,5.65
2022-10-05T08:54:39.626Z,5.40
2022-10-05T08:57:31.074Z,5.28
2022-10-05T09:00:09.319Z,5.07
2022-10-05T09:02:51.038Z,5.40
2022-10-05T09:05:40.833Z,5.60
2022-10-05T09:08:33.029Z,4.95
2022-10-05T09:11:06.552Z,4.85
2022-10-05T09:13:58.230Z,5.10
2022-10-05T09:16:36.433Z,5.15
2022-10-05T09:19:22.831Z,4.85
2022-10-05T09:21:59.746Z,4.35
2022-10-05T09:24:48.654Z,4.85
2022-10-05T09:27:19.231Z,4.10
2022-10-05T09:30:21.834Z,4.78
2022-10-05T09:33:29.914Z,4.90
2022-10-05T09:36:21.577Z,4.78
2022-10-05T09:39:25.552Z,4.97
2022-10-05T09:42:11.385Z,3.88
2022-10-05T09:48:05.234Z,6.20
2022-10-05T09:51:14.070Z,5.78
2022-10-05T09:54:10.833Z,5.18
2022-10-05T09:57:08.074Z,5.30
2022-10-05T10:00:15.352Z,3.70
2022-10-05T10:03:20.484Z,4.00
2022-10-05T10:06:05.509Z,4.63
2022-10-05T10:08:44.792Z,4.10
2022-10-05T10:11:41.673Z,4.47
2022-10-05T10:14:29.108Z,4.63
2022-10-05T10:17:23.226Z,4.03
2022-10-05T10:20:14.748Z,3.70
2022-10-05T10:23:19.631Z,3.60
2022-10-05T10:26:12.672Z,3.10
2022-10-05T10:29:20.277Z,3.28
2022-10-05T10:32:14.158Z,3.28
2022-10-05T10:35:09.653Z,2.88
2022-10-05T10:38:22.353Z,3.17
2022-10-05T10:41:25.603Z,3.17
2022-10-05T10:44:16.246Z,3.10
2022-10-05T10:46:55.861Z,3.00
2022-10-05T10:49:40.472Z,3.00
2022-10-05T10:52:31.507Z,3.17
2022-10-05T10:55:27.790Z,3.00
2022-10-05T11:01:18.807Z,2.55
2022-10-05T11:04:03.715Z,2.83
2022-10-05T11:06:51.795Z,2.60
2022-10-05T11:09:42.476Z,3.10
2022-10-05T11:12:41.394Z,3.17
2022-10-05T11:15:58.788Z,3.05
2022-10-05T11:18:40.588Z,2.88
2022-10-05T11:21:25.793Z,2.83
2022-10-05T11:24:27.591Z,2.58
2022-10-05T11:30:38.666Z,2.70
2022-10-05T11:33:40.242Z,2.42
2022-10-05T11:36:41.122Z,2.60
2022-10-05T11:39:38.313Z,2.70
2022-10-05T11:42:40.474Z,2.58
2022-10-05T11:45:27.517Z,2.72
2022-10-05T11:48:34.954Z,2.55
2022-10-05T11:51:30.202Z,2.40
2022-10-05T11:54:17.752Z,2.38
2022-10-05T11:56:53.858Z,2.33
2022-10-05T11:59:31.512Z,2.35
2022-10-05T12:02:16.950Z,2.55
2022-10-05T12:04:54.319Z,2.30
2022-10-05T12:07:30.358Z,2.30
2022-10-05T12:10:17.119Z,2.10
2022-10-05T12:13:01.419Z,2.40
2022-10-05T12:15:36.192Z,2.38
2022-10-05T12:18:13.764Z,2.23
2022-10-05T12:20:48.909Z,1.80
2022-10-05T12:23:26.149Z,1.90
2022-10-05T12:26:01.349Z,2.33
2022-10-05T12:28:37.586Z,2.10
2022-10-05T12:31:21.052Z,2.00
2022-10-05T12:34:01.830Z,1.80
2022-10-05T12:37:02.458Z,1.75
2022-10-05T12:39:35.546Z,2.30
2022-10-05T12:42:17.203Z,1.92
2022-10-05T12:45:14.845Z,1.58
2022-10-05T12:48:00.748Z,2.03
2022-10-05T12:50:36.843Z,2.03
2022-10-05T12:53:20.275Z,1.63
2022-10-05T12:55:56.123Z,1.65
2022-10-05T12:58:33.827Z,1.88
2022-10-05T13:01:08.223Z,1.80
2022-10-05T13:03:40.562Z,1.95
2022-10-05T13:06:22.832Z,2.00
2022-10-05T13:08:57.425Z,1.88
2022-10-05T13:11:35.334Z,1.70
2022-10-05T13:14:17.730Z,2.10
2022-10-05T13:16:55.158Z,1.60
2022-10-05T13:19:40.510Z,1.45
2022-10-05T13:22:28.642Z,2.33
2022-10-05T13:25:09.636Z,2.00
2022-10-05T13:27:43.588Z,1.92
2022-10-05T13:30:17.149Z,1.77
2022-10-05T13:32:49.003Z,1.80
2022-10-05T13:35:38.751Z,1.50
2022-10-05T13:38:19.994Z,1.65
2022-10-05T13:40:54.830Z,1.80
2022-10-05T13:43:32.117Z,1.58
2022-10-05T13:46:12.338Z,1.60
2022-10-05T13:48:52.606Z,1.83
2022-10-05T13:51:24.427Z,1.85
2022-10-05T13:54:02.474Z,1.73
2022-10-05T13:56:33.233Z,1.50
2022-10-05T13:59:12.252Z,1.40
2022-10-05T14:01:45.263Z,1.67
2022-10-05T14:04:19.951Z,1.42
2022-10-05T14:06:49.748Z,1.80
2022-10-05T14:09:31.679Z,1.70
2022-10-05T14:12:20.833Z,1.55
2022-10-05T14:14:52.038Z,1.65
2022-10-05T14:17:40.437Z,1.50
2022-10-05T14:20:22.865Z,1.75
2022-10-05T14:22:55.666Z,1.50
2022-10-05T14:25:25.723Z,1.60
2022-10-05T14:28:01.320Z,1.60
2022-10-05T14:30:31.312Z,1.33
2022-10-05T14:33:14.212Z,1.38
2022-10-05T14:35:49.434Z,1.52
2022-10-05T14:38:21.590Z,1.60
2022-10-05T14:41:18.879Z,1.30
2022-10-05T14:43:52.779Z,1.27
2022-10-05T14:46:29.044Z,1.60
2022-10-05T14:49:21.649Z,1.58
2022-10-05T14:51:51.364Z,1.30
2022-10-05T14:54:31.593Z,1.60
2022-10-05T14:57:08.346Z,1.30
2022-10-05T15:00:04.095Z,1.50
2022-10-05T15:03:04.648Z,1.70
2022-10-05T15:05:39.337Z,1.58
2022-10-05T15:08:19.398Z,1.63
2022-10-05T15:10:52.311Z,1.15
2022-10-05T15:13:25.524Z,1.40
2022-10-05T15:15:56.705Z,1.30
2022-10-05T15:18:40.554Z,1.30
2022-10-05T15:21:28.505Z,1.15
2022-10-05T15:24:01.915Z,1.40
2022-10-05T15:26:40.548Z,1.63
2022-10-05T15:29:26.178Z,1.17
2022-10-05T15:31:59.953Z,1.67
2022-10-05T15:34:36.265Z,1.73
2022-10-05T15:37:16.236Z,1.52
2022-10-05T15:39:52.388Z,1.60
2022-10-05T15:42:25.991Z,1.80
2022-10-05T15:45:07.910Z,5.90
2022-10-05T15:47:49.225Z,17.58
2022-10-05T15:50:24.353Z,31.92
2022-10-05T15:52:59.012Z,7.50
2022-10-05T15:55:36.392Z,14.90
2022-10-05T15:58:28.905Z,20.45
2022-10-05T16:01:04.745Z,22.35
2022-10-05T16:03:45.188Z,11.13
2022-10-05T16:06:52.307Z,16.77
2022-10-05T16:09:35.627Z,16.77
2022-10-05T16:12:13.673Z,29.98
2022-10-05T16:14:56.470Z,27.10
2022-10-05T16:17:43.951Z,16.95
2022-10-05T16:20:26.279Z,26.02
2022-10-05T16:23:03.070Z,25.45
2022-10-05T16:25:43.234Z,20.55
2022-10-05T16:28:29.385Z,17.05
2022-10-05T16:31:04.165Z,13.32
2022-10-05T16:33:54.488Z,10.90
2022-10-05T16:36:36.506Z,17.05
2022-10-05T16:39:12.752Z,11.55
2022-10-05T16:41:49.348Z,11.77
2022-10-05T16:44:29.715Z,9.68
2022-10-05T16:47:00.911Z,6.40
2022-10-05T16:49:39.997Z,9.68
2022-10-05T16:52:13.870Z,6.75
2022-10-05T16:54:48.060Z,5.68
2022-10-05T16:57:22.154Z,3.83
2022-10-05T17:00:16.123Z,4.78
2022-10-05T17:03:08.385Z,11.10
2022-10-05T17:06:17.996Z,6.18
2022-10-05T17:09:11.192Z,7.05
2022-10-05T17:11:54.829Z,6.13
2022-10-05T17:14:39.117Z,6.00
2022-10-05T17:17:38.545Z,4.18
2022-10-05T17:20:31.465Z,3.15
2022-10-05T17:23:06.349Z,3.78
2022-10-05T17:25:46.031Z,3.08
